To NAV CANADA Home Page Login to a new session Search on AWWS site Feedback and Comments Disclaimer Vers la page française équivalente Tips FAQ What's new on the site To the Forecasts and Observations / NOTAM section To "File a Flight Plan" website Publications and other links Update of the User's profile FIC Telephone Numbers My Weather Data Folder Route Weather Data Regional Weather Data Local Weather Data To the Forecasts and Observations / NOTAM section
Request Generated 08/28/2016 at 20:34:53 UTC . Weather information available at that time is displayed.

METAR/TAF

CHURCHILL/MB    (show WxCam)

METAR CYYQ 282000Z 11014G20KT 15SM FEW025 FEW170 SCT250 19/13 A2999
RMK CU1AC1CI1 SLP159 DENSITY ALT 500FT=
METAR CYYQ 281900Z 11013KT 15SM FEW026 SCT250 20/14 A2999 RMK CU2CI2
SLP160 DENSITY ALT 600FT=
METAR CYYQ 281800Z 13012KT 090V150 15SM SCT025 BKN250 20/14 A2999 RMK
SC4CI2 SLP160 DENSITY ALT 600FT=

TAF CYYQ 281738Z 2818/2918 12010KT P6SM SCT030 SCT160 BKN250
FM282200 12015KT P6SM BKN060 BKN120
FM290200 12012KT P6SM SCT012 BKN060 TEMPO 2902/2910 2SM -SHRA BR
BKN012
FM291000 06008KT 4SM -RA BR BKN008 OVC012 TEMPO 2910/2918 1SM
-SHRA BR OVC005
RMK NXT FCST BY 290000Z=
Your time UTC time
Weather data provided by Environment Canada and NAV CANADA